Zeran (malta) — 9HHJ5 — position and weather

sailwx.info

Track history (hours):
 
Tides and Currents Weather Stations Pressure Air Temp Water Temp Dewpoint Dewpoint Depression Visibility Wind Speed Wind Dir Waves Ship Positions

Zeran (malta)

Last reported at 2017-Jun-27 14:26 UTC. Time now 2017-Jun-27 22:22 UTC.
Position N 36°54' E 010°30'.

Length 148 m; beam 24 m.

Type: Cargo ship. MMSI: 249846000.

Date/timePositionNaut miles runAvg speedWind from/ knotsBaromVisibWave heightAir tempDewpointWater temp
2017-Jun-27 14:26N 36°54' E 010°30'1212.5
2017-Jun-27 13:30N 37°03' E 010°39'612.3
2017-Jun-27 12:59N 37°08' E 010°44'912.3
2017-Jun-27 12:17N 37°14' E 010°51'412.4
2017-Jun-27 12:00N 37°17' E 010°54'612.6
2017-Jun-27 11:30N 37°21' E 010°60'612.5
2017-Jun-27 11:00N 37°26' E 011°05'812.3
2017-Jun-27 10:21N 37°32' E 011°11'2112.1
2017-Jun-27 08:35N 37°48' E 011°30'112.0
2017-Jun-27 08:30N 37°49' E 011°30'611.9
2017-Jun-27 07:58N 37°53' E 011°36'6111.7
2017-Jun-27 02:46N 38°39' E 012°27'312.5
2017-Jun-27 02:30N 38°41' E 012°30'612.7
2017-Jun-27 02:00N 38°46' E 012°35'612.7
2017-Jun-27 01:30N 38°51' E 012°40'612.7
2017-Jun-27 01:00N 38°56' E 012°45'612.5
2017-Jun-27 00:30N 39°01' E 012°50'2412.7
2017-Jun-26 22:38N 39°18' E 013°11'212.7
2017-Jun-26 22:30N 39°20' E 013°12'612.6
2017-Jun-26 22:00N 39°24' E 013°18'612.5
2017-Jun-26 21:30N 39°29' E 013°23'612.6
2017-Jun-26 21:00N 39°34' E 013°29'612.5
2017-Jun-26 20:30N 39°38' E 013°34'612.3
2017-Jun-26 20:00N 39°43' E 013°39'612.5
2017-Jun-26 19:30N 39°48' E 013°45'612.6
2017-Jun-26 19:00N 39°53' E 013°50'612.7
2017-Jun-26 18:30N 39°57' E 013°55'612.6
2017-Jun-26 18:00N 40°02' E 014°01'612.4
2017-Jun-26 17:30N 40°07' E 014°06'1412.6
2017-Jun-26 16:26N 40°17' E 014°18'512.4
2017-Jun-26 16:00N 40°21' E 014°23'612.3
2017-Jun-26 15:30N 40°25' E 014°28'13 1.0
2017-Jun-26 02:27N 40°35' E 014°38'511.4
2017-Jun-26 02:00N 40°34' E 014°32'811.7
2017-Jun-26 01:17N 40°32' E 014°21'411.5
2017-Jun-26 00:54N 40°31' E 014°15'411.0
2017-Jun-26 00:30N 40°31' E 014°10'611.3
2017-Jun-26 00:00N 40°33' E 014°03'611.5
2017-Jun-25 23:30N 40°36' E 013°56'611.4
2017-Jun-25 23:00N 40°39' E 013°50'611.6
2017-Jun-25 22:30N 40°42' E 013°43'611.8
2017-Jun-25 22:00N 40°46' E 013°37'612.5
2017-Jun-25 21:30N 40°50' E 013°31'713.2
2017-Jun-25 20:59N 40°54' E 013°24'713.4
2017-Jun-25 20:29N 40°58' E 013°17'1013.6
2017-Jun-25 19:46N 41°03' E 013°06'413.7
2017-Jun-25 19:29N 41°06' E 013°01'3513.4
2017-Jun-25 16:50N 41°26' E 012°23'14112.6
2017-Jun-25 05:37N 42°59' E 009°60'512.8
2017-Jun-25 05:15N 43°04' E 009°60'312.5
2017-Jun-25 05:00N 43°06' E 009°59'713.3
2017-Jun-25 04:30N 43°12' E 009°54'713.2
2017-Jun-25 03:59N 43°18' E 009°50'613.0
2017-Jun-25 03:30N 43°24' E 009°45'612.9
2017-Jun-25 03:00N 43°29' E 009°41'612.8
2017-Jun-25 02:30N 43°35' E 009°36'612.7
2017-Jun-25 02:00N 43°40' E 009°32'612.6
2017-Jun-25 01:30N 43°46' E 009°27'612.5
2017-Jun-25 01:00N 43°51' E 009°23'612.5
2017-Jun-25 00:30N 43°56' E 009°18'612.6
2017-Jun-25 00:00N 44°01' E 009°13'612.7
2017-Jun-24 23:30N 44°07' E 009°09'612.7
2017-Jun-24 23:00N 44°12' E 009°04'612.8
2017-Jun-24 22:30N 44°18' E 008°59'612.7
2017-Jun-24 22:00N 44°23' E 008°54'2 3.7
2017-Jun-24 21:30N 44°24' E 008°53'0 0.0
2017-Jun-24 21:00N 44°24' E 008°53'0 0.0
2017-Jun-24 20:30N 44°24' E 008°53'0 0.0
2017-Jun-24 20:00N 44°24' E 008°53'0 0.0
2017-Jun-24 19:30N 44°24' E 008°53'0 0.0
2017-Jun-24 19:00N 44°24' E 008°53'0 0.0
2017-Jun-24 18:27N 44°24' E 008°53'0 0.0
2017-Jun-24 18:00N 44°24' E 008°53'0 0.0
2017-Jun-24 17:30N 44°24' E 008°53'0 0.0
2017-Jun-24 17:00N 44°24' E 008°53'0 0.0
2017-Jun-24 16:30N 44°24' E 008°53'0 0.0
2017-Jun-24 16:00N 44°24' E 008°53'0 0.0
2017-Jun-24 15:30N 44°24' E 008°53'0 0.0
2017-Jun-24 15:00N 44°24' E 008°53'0 0.0
2017-Jun-24 14:00N 44°24' E 008°53'0 0.0
2017-Jun-24 13:30N 44°24' E 008°53'0 0.0
2017-Jun-24 13:00N 44°24' E 008°53'0 0.0
2017-Jun-24 12:30N 44°24' E 008°53'0 0.0
2017-Jun-24 12:00N 44°24' E 008°53'0 0.0
2017-Jun-24 11:30N 44°24' E 008°53'0 0.0
2017-Jun-24 11:00N 44°24' E 008°53'0 0.0
2017-Jun-24 10:30N 44°24' E 008°53'0 0.0
2017-Jun-24 10:00N 44°24' E 008°53'0 0.0
2017-Jun-24 09:30N 44°24' E 008°53'0 0.0
2017-Jun-24 09:00N 44°24' E 008°53'0 0.0
2017-Jun-24 08:30N 44°24' E 008°53'0 0.0
2017-Jun-24 08:00N 44°24' E 008°53'0 0.0
2017-Jun-24 07:27N 44°24' E 008°53'0 0.0
2017-Jun-24 07:00N 44°24' E 008°53'0 0.0
2017-Jun-24 06:30N 44°24' E 008°53'0 0.0
2017-Jun-24 06:00N 44°24' E 008°53'0 0.0
2017-Jun-24 05:30N 44°24' E 008°53'0 0.0
2017-Jun-24 05:00N 44°24' E 008°53'0 0.0
2017-Jun-24 04:30N 44°24' E 008°53'0 0.0
2017-Jun-24 04:00N 44°24' E 008°53'0 0.0
2017-Jun-24 03:30N 44°24' E 008°53'0 0.0
2017-Jun-24 03:00N 44°24' E 008°53'0 0.0
2017-Jun-24 02:30N 44°24' E 008°53'0 0.0
2017-Jun-24 02:00N 44°24' E 008°53'0 0.0
2017-Jun-24 01:27N 44°24' E 008°53'0 0.0
2017-Jun-24 01:00N 44°24' E 008°53'0 0.0
2017-Jun-24 00:30N 44°24' E 008°53'0 0.0
2017-Jun-24 00:00N 44°24' E 008°53'0 0.0
2017-Jun-23 23:30N 44°24' E 008°53'0 0.0
2017-Jun-23 23:00N 44°24' E 008°53'0 0.0
2017-Jun-23 22:30N 44°24' E 008°53'0 0.0
2017-Jun-23 22:00N 44°24' E 008°53'0 0.0
2017-Jun-23 21:30N 44°24' E 008°53'0 0.0
2017-Jun-23 21:00N 44°24' E 008°53'0 0.0
2017-Jun-23 20:27N 44°24' E 008°53'0 0.0
2017-Jun-23 20:00N 44°24' E 008°53'0 0.0
2017-Jun-23 19:30N 44°24' E 008°53'0 0.0
2017-Jun-23 19:00N 44°24' E 008°53'0 0.0
2017-Jun-23 18:30N 44°24' E 008°53'0 0.0
2017-Jun-23 18:00N 44°24' E 008°53'0 0.0
2017-Jun-23 17:30N 44°24' E 008°53'0 0.8
2017-Jun-23 17:00N 44°24' E 008°53'4 8.0
2017-Jun-23 16:30N 44°22' E 008°58'611.4
2017-Jun-23 16:00N 44°17' E 009°01'611.5
2017-Jun-23 15:30N 44°11' E 009°03'611.7
2017-Jun-23 15:00N 44°06' E 009°06'1312.0
2017-Jun-23 13:57N 43°54' E 009°12'512.2
2017-Jun-23 13:30N 43°49' E 009°15'612.1
2017-Jun-23 13:00N 43°43' E 009°18'612.0
2017-Jun-23 12:30N 43°38' E 009°20'611.8
2017-Jun-23 12:00N 43°32' E 009°23'611.8
2017-Jun-23 11:30N 43°27' E 009°26'611.7
2017-Jun-23 11:00N 43°21' E 009°29'611.8
2017-Jun-23 10:30N 43°16' E 009°32'611.8
2017-Jun-23 10:00N 43°10' E 009°35'712.3
2017-Jun-23 09:27N 43°04' E 009°38'712.2
2017-Jun-23 08:55N 42°57' E 009°41'512.0
2017-Jun-23 08:29N 42°52' E 009°42'612.0
2017-Jun-23 08:00N 42°47' E 009°43'612.1
2017-Jun-23 07:30N 42°41' E 009°43'612.2
2017-Jun-23 06:59N 42°34' E 009°44'612.1
2017-Jun-23 06:30N 42°29' E 009°45'611.9
2017-Jun-23 06:00N 42°23' E 009°45'611.9
2017-Jun-23 05:30N 42°17' E 009°46'711.8
2017-Jun-23 04:55N 42°10' E 009°47'511.7
2017-Jun-23 04:30N 42°05' E 009°48'711.6
2017-Jun-23 03:55N 41°58' E 009°49'511.5
2017-Jun-23 03:30N 41°53' E 009°50'611.6
2017-Jun-23 03:00N 41°48' E 009°51'611.7
2017-Jun-23 02:30N 41°42' E 009°51'611.8
2017-Jun-23 02:00N 41°36' E 009°52'611.6
2017-Jun-23 01:30N 41°30' E 009°53'611.4
2017-Jun-23 01:00N 41°25' E 009°54'611.4
2017-Jun-23 00:30N 41°19' E 009°55'611.4
2017-Jun-22 23:59N 41°13' E 009°55'611.6
2017-Jun-22 23:29N 41°07' E 009°56'611.8
2017-Jun-22 23:00N 41°02' E 009°56'611.8
2017-Jun-22 22:30N 40°56' E 009°56'612.0
2017-Jun-22 22:00N 40°50' E 009°55'1412.2
2017-Jun-22 20:54N 40°36' E 009°56'512.2
2017-Jun-22 20:30N 40°31' E 009°56'612.2
2017-Jun-22 20:00N 40°25' E 009°56'3612.1
2017-Jun-22 17:00N 39°49' E 009°59'4612.4
2017-Jun-22 13:20N 39°03' E 009°60'412.1
2017-Jun-22 13:00N 38°60' E 010°01'612.1
2017-Jun-22 12:30N 38°54' E 010°02'612.0
2017-Jun-22 12:00N 38°48' E 010°03'611.8
2017-Jun-22 11:30N 38°42' E 010°05'611.8
2017-Jun-22 11:00N 38°36' E 010°06'611.8
2017-Jun-22 10:30N 38°30' E 010°07'611.7
2017-Jun-22 10:00N 38°24' E 010°08'611.9
2017-Jun-22 09:30N 38°19' E 010°09'612.1
2017-Jun-22 08:58N 38°12' E 010°10'611.9
2017-Jun-22 08:30N 38°07' E 010°11'812.0
2017-Jun-22 07:52N 37°59' E 010°13'3612.0
2017-Jun-22 04:54N 37°25' E 010°25'511.7
2017-Jun-22 04:30N 37°20' E 010°25'3210.0
2017-Jun-22 01:18N 36°49' E 010°17'  
2017-Jun-19 16:57N 38°45' E 012°55'812.7
2017-Jun-19 16:21N 38°51' E 013°00'263 7.0
2017-Jun-18 02:47N 42°39' E 010°08'312.6
2017-Jun-18 02:30N 42°41' E 010°04'612.1
2017-Jun-18 02:00N 42°47' E 010°00'612.8
2017-Jun-18 01:30N 42°53' E 010°00'612.4
2017-Jun-18 01:00N 42°59' E 010°00'612.1
2017-Jun-18 00:30N 43°06' E 009°59'612.4
2017-Jun-18 00:00N 43°11' E 009°55'612.6
2017-Jun-17 23:30N 43°16' E 009°50'612.5
2017-Jun-17 23:00N 43°21' E 009°45'612.5
2017-Jun-17 22:30N 43°27' E 009°41'612.7
2017-Jun-17 22:00N 43°32' E 009°36'612.8
2017-Jun-17 21:30N 43°37' E 009°32'612.9
2017-Jun-17 21:00N 43°43' E 009°28'612.8
2017-Jun-17 20:30N 43°48' E 009°23'612.6
2017-Jun-17 20:00N 43°54' E 009°18'612.6
2017-Jun-17 19:30N 43°59' E 009°14'612.5
2017-Jun-17 19:00N 44°05' E 009°10'612.8
2017-Jun-17 18:30N 44°10' E 009°05'612.8
2017-Jun-17 18:00N 44°16' E 009°00'612.5
2017-Jun-17 17:30N 44°21' E 008°56'4 8.2
2017-Jun-17 17:00N 44°24' E 008°52'0 0.3
2017-Jun-17 16:29N 44°24' E 008°53'0 0.0
2017-Jun-17 15:59N 44°24' E 008°53'0 0.0
2017-Jun-17 15:29N 44°24' E 008°53'0 0.0
2017-Jun-17 14:59N 44°24' E 008°53'  
Track history (hours):
 
Tides and Currents Weather Stations Pressure Air Temp Water Temp Dewpoint Dewpoint Depression Visibility Wind Speed Wind Dir Waves Ship Positions

Zeran (malta)

Last reported at 2017-Jun-27 14:26 UTC. Time now 2017-Jun-27 22:22 UTC.
Position N 36°54' E 010°30'.

Length 148 m; beam 24 m.

Type: Cargo ship. MMSI: 249846000.

Date/timePositionNaut miles runAvg speedWind from/ knotsBaromVisibWave heightAir tempDewpointWater temp
2017-Jun-27 14:26N 36°54' E 010°30'1212.5
2017-Jun-27 13:30N 37°03' E 010°39'612.3
2017-Jun-27 12:59N 37°08' E 010°44'912.3
2017-Jun-27 12:17N 37°14' E 010°51'412.4
2017-Jun-27 12:00N 37°17' E 010°54'612.6
2017-Jun-27 11:30N 37°21' E 010°60'612.5
2017-Jun-27 11:00N 37°26' E 011°05'812.3
2017-Jun-27 10:21N 37°32' E 011°11'2112.1
2017-Jun-27 08:35N 37°48' E 011°30'112.0
2017-Jun-27 08:30N 37°49' E 011°30'611.9
2017-Jun-27 07:58N 37°53' E 011°36'6111.7
2017-Jun-27 02:46N 38°39' E 012°27'312.5
2017-Jun-27 02:30N 38°41' E 012°30'612.7
2017-Jun-27 02:00N 38°46' E 012°35'612.7
2017-Jun-27 01:30N 38°51' E 012°40'612.7
2017-Jun-27 01:00N 38°56' E 012°45'612.5
2017-Jun-27 00:30N 39°01' E 012°50'2412.7
2017-Jun-26 22:38N 39°18' E 013°11'212.7
2017-Jun-26 22:30N 39°20' E 013°12'612.6
2017-Jun-26 22:00N 39°24' E 013°18'612.5
2017-Jun-26 21:30N 39°29' E 013°23'612.6
2017-Jun-26 21:00N 39°34' E 013°29'612.5
2017-Jun-26 20:30N 39°38' E 013°34'612.3
2017-Jun-26 20:00N 39°43' E 013°39'612.5
2017-Jun-26 19:30N 39°48' E 013°45'612.6
2017-Jun-26 19:00N 39°53' E 013°50'612.7
2017-Jun-26 18:30N 39°57' E 013°55'612.6
2017-Jun-26 18:00N 40°02' E 014°01'612.4
2017-Jun-26 17:30N 40°07' E 014°06'1412.6
2017-Jun-26 16:26N 40°17' E 014°18'512.4
2017-Jun-26 16:00N 40°21' E 014°23'612.3
2017-Jun-26 15:30N 40°25' E 014°28'13 1.0
2017-Jun-26 02:27N 40°35' E 014°38'511.4
2017-Jun-26 02:00N 40°34' E 014°32'811.7
2017-Jun-26 01:17N 40°32' E 014°21'411.5
2017-Jun-26 00:54N 40°31' E 014°15'411.0
2017-Jun-26 00:30N 40°31' E 014°10'611.3
2017-Jun-26 00:00N 40°33' E 014°03'611.5
2017-Jun-25 23:30N 40°36' E 013°56'611.4
2017-Jun-25 23:00N 40°39' E 013°50'611.6
2017-Jun-25 22:30N 40°42' E 013°43'611.8
2017-Jun-25 22:00N 40°46' E 013°37'612.5
2017-Jun-25 21:30N 40°50' E 013°31'713.2
2017-Jun-25 20:59N 40°54' E 013°24'713.4
2017-Jun-25 20:29N 40°58' E 013°17'1013.6
2017-Jun-25 19:46N 41°03' E 013°06'413.7
2017-Jun-25 19:29N 41°06' E 013°01'3513.4
2017-Jun-25 16:50N 41°26' E 012°23'14112.6
2017-Jun-25 05:37N 42°59' E 009°60'512.8
2017-Jun-25 05:15N 43°04' E 009°60'312.5
2017-Jun-25 05:00N 43°06' E 009°59'713.3
2017-Jun-25 04:30N 43°12' E 009°54'713.2
2017-Jun-25 03:59N 43°18' E 009°50'613.0
2017-Jun-25 03:30N 43°24' E 009°45'612.9
2017-Jun-25 03:00N 43°29' E 009°41'612.8
2017-Jun-25 02:30N 43°35' E 009°36'612.7
2017-Jun-25 02:00N 43°40' E 009°32'612.6
2017-Jun-25 01:30N 43°46' E 009°27'612.5
2017-Jun-25 01:00N 43°51' E 009°23'612.5
2017-Jun-25 00:30N 43°56' E 009°18'612.6
2017-Jun-25 00:00N 44°01' E 009°13'612.7
2017-Jun-24 23:30N 44°07' E 009°09'612.7
2017-Jun-24 23:00N 44°12' E 009°04'612.8
2017-Jun-24 22:30N 44°18' E 008°59'612.7
2017-Jun-24 22:00N 44°23' E 008°54'2 3.7
2017-Jun-24 21:30N 44°24' E 008°53'0 0.0
2017-Jun-24 21:00N 44°24' E 008°53'0 0.0
2017-Jun-24 20:30N 44°24' E 008°53'0 0.0
2017-Jun-24 20:00N 44°24' E 008°53'0 0.0
2017-Jun-24 19:30N 44°24' E 008°53'0 0.0
2017-Jun-24 19:00N 44°24' E 008°53'0 0.0
2017-Jun-24 18:27N 44°24' E 008°53'0 0.0
2017-Jun-24 18:00N 44°24' E 008°53'0 0.0
2017-Jun-24 17:30N 44°24' E 008°53'0 0.0
2017-Jun-24 17:00N 44°24' E 008°53'0 0.0
2017-Jun-24 16:30N 44°24' E 008°53'0 0.0
2017-Jun-24 16:00N 44°24' E 008°53'0 0.0
2017-Jun-24 15:30N 44°24' E 008°53'0 0.0
2017-Jun-24 15:00N 44°24' E 008°53'0 0.0
2017-Jun-24 14:00N 44°24' E 008°53'0 0.0
2017-Jun-24 13:30N 44°24' E 008°53'0 0.0
2017-Jun-24 13:00N 44°24' E 008°53'0 0.0
2017-Jun-24 12:30N 44°24' E 008°53'0 0.0
2017-Jun-24 12:00N 44°24' E 008°53'0 0.0
2017-Jun-24 11:30N 44°24' E 008°53'0 0.0
2017-Jun-24 11:00N 44°24' E 008°53'0 0.0
2017-Jun-24 10:30N 44°24' E 008°53'0 0.0
2017-Jun-24 10:00N 44°24' E 008°53'0 0.0
2017-Jun-24 09:30N 44°24' E 008°53'0 0.0
2017-Jun-24 09:00N 44°24' E 008°53'0 0.0
2017-Jun-24 08:30N 44°24' E 008°53'0 0.0
2017-Jun-24 08:00N 44°24' E 008°53'0 0.0
2017-Jun-24 07:27N 44°24' E 008°53'0 0.0
2017-Jun-24 07:00N 44°24' E 008°53'0 0.0
2017-Jun-24 06:30N 44°24' E 008°53'0 0.0
2017-Jun-24 06:00N 44°24' E 008°53'0 0.0
2017-Jun-24 05:30N 44°24' E 008°53'0 0.0
2017-Jun-24 05:00N 44°24' E 008°53'0 0.0
2017-Jun-24 04:30N 44°24' E 008°53'0 0.0
2017-Jun-24 04:00N 44°24' E 008°53'0 0.0
2017-Jun-24 03:30N 44°24' E 008°53'0 0.0
2017-Jun-24 03:00N 44°24' E 008°53'0 0.0
2017-Jun-24 02:30N 44°24' E 008°53'0 0.0
2017-Jun-24 02:00N 44°24' E 008°53'0 0.0
2017-Jun-24 01:27N 44°24' E 008°53'0 0.0
2017-Jun-24 01:00N 44°24' E 008°53'0 0.0
2017-Jun-24 00:30N 44°24' E 008°53'0 0.0
2017-Jun-24 00:00N 44°24' E 008°53'0 0.0
2017-Jun-23 23:30N 44°24' E 008°53'0 0.0
2017-Jun-23 23:00N 44°24' E 008°53'0 0.0
2017-Jun-23 22:30N 44°24' E 008°53'0 0.0
2017-Jun-23 22:00N 44°24' E 008°53'0 0.0
2017-Jun-23 21:30N 44°24' E 008°53'0 0.0
2017-Jun-23 21:00N 44°24' E 008°53'0 0.0
2017-Jun-23 20:27N 44°24' E 008°53'0 0.0
2017-Jun-23 20:00N 44°24' E 008°53'0 0.0
2017-Jun-23 19:30N 44°24' E 008°53'0 0.0
2017-Jun-23 19:00N 44°24' E 008°53'0 0.0
2017-Jun-23 18:30N 44°24' E 008°53'0 0.0
2017-Jun-23 18:00N 44°24' E 008°53'0 0.0
2017-Jun-23 17:30N 44°24' E 008°53'0 0.8
2017-Jun-23 17:00N 44°24' E 008°53'4 8.0
2017-Jun-23 16:30N 44°22' E 008°58'611.4
2017-Jun-23 16:00N 44°17' E 009°01'611.5
2017-Jun-23 15:30N 44°11' E 009°03'611.7
2017-Jun-23 15:00N 44°06' E 009°06'1312.0
2017-Jun-23 13:57N 43°54' E 009°12'512.2
2017-Jun-23 13:30N 43°49' E 009°15'612.1
2017-Jun-23 13:00N 43°43' E 009°18'612.0
2017-Jun-23 12:30N 43°38' E 009°20'611.8
2017-Jun-23 12:00N 43°32' E 009°23'611.8
2017-Jun-23 11:30N 43°27' E 009°26'611.7
2017-Jun-23 11:00N 43°21' E 009°29'611.8
2017-Jun-23 10:30N 43°16' E 009°32'611.8
2017-Jun-23 10:00N 43°10' E 009°35'712.3
2017-Jun-23 09:27N 43°04' E 009°38'712.2
2017-Jun-23 08:55N 42°57' E 009°41'512.0
2017-Jun-23 08:29N 42°52' E 009°42'612.0
2017-Jun-23 08:00N 42°47' E 009°43'612.1
2017-Jun-23 07:30N 42°41' E 009°43'612.2
2017-Jun-23 06:59N 42°34' E 009°44'612.1
2017-Jun-23 06:30N 42°29' E 009°45'611.9
2017-Jun-23 06:00N 42°23' E 009°45'611.9
2017-Jun-23 05:30N 42°17' E 009°46'711.8
2017-Jun-23 04:55N 42°10' E 009°47'511.7
2017-Jun-23 04:30N 42°05' E 009°48'711.6
2017-Jun-23 03:55N 41°58' E 009°49'511.5
2017-Jun-23 03:30N 41°53' E 009°50'611.6
2017-Jun-23 03:00N 41°48' E 009°51'611.7
2017-Jun-23 02:30N 41°42' E 009°51'611.8
2017-Jun-23 02:00N 41°36' E 009°52'611.6
2017-Jun-23 01:30N 41°30' E 009°53'611.4
2017-Jun-23 01:00N 41°25' E 009°54'611.4
2017-Jun-23 00:30N 41°19' E 009°55'611.4
2017-Jun-22 23:59N 41°13' E 009°55'611.6
2017-Jun-22 23:29N 41°07' E 009°56'611.8
2017-Jun-22 23:00N 41°02' E 009°56'611.8
2017-Jun-22 22:30N 40°56' E 009°56'612.0
2017-Jun-22 22:00N 40°50' E 009°55'1412.2
2017-Jun-22 20:54N 40°36' E 009°56'512.2
2017-Jun-22 20:30N 40°31' E 009°56'612.2
2017-Jun-22 20:00N 40°25' E 009°56'3612.1
2017-Jun-22 17:00N 39°49' E 009°59'4612.4
2017-Jun-22 13:20N 39°03' E 009°60'412.1
2017-Jun-22 13:00N 38°60' E 010°01'612.1
2017-Jun-22 12:30N 38°54' E 010°02'612.0
2017-Jun-22 12:00N 38°48' E 010°03'611.8
2017-Jun-22 11:30N 38°42' E 010°05'611.8
2017-Jun-22 11:00N 38°36' E 010°06'611.8
2017-Jun-22 10:30N 38°30' E 010°07'611.7
2017-Jun-22 10:00N 38°24' E 010°08'611.9
2017-Jun-22 09:30N 38°19' E 010°09'612.1
2017-Jun-22 08:58N 38°12' E 010°10'611.9
2017-Jun-22 08:30N 38°07' E 010°11'812.0
2017-Jun-22 07:52N 37°59' E 010°13'3612.0
2017-Jun-22 04:54N 37°25' E 010°25'511.7
2017-Jun-22 04:30N 37°20' E 010°25'3210.0
2017-Jun-22 01:18N 36°49' E 010°17'  
2017-Jun-19 16:57N 38°45' E 012°55'812.7
2017-Jun-19 16:21N 38°51' E 013°00'263 7.0
2017-Jun-18 02:47N 42°39' E 010°08'312.6
2017-Jun-18 02:30N 42°41' E 010°04'612.1
2017-Jun-18 02:00N 42°47' E 010°00'612.8
2017-Jun-18 01:30N 42°53' E 010°00'612.4
2017-Jun-18 01:00N 42°59' E 010°00'612.1
2017-Jun-18 00:30N 43°06' E 009°59'612.4
2017-Jun-18 00:00N 43°11' E 009°55'612.6
2017-Jun-17 23:30N 43°16' E 009°50'612.5
2017-Jun-17 23:00N 43°21' E 009°45'612.5
2017-Jun-17 22:30N 43°27' E 009°41'612.7
2017-Jun-17 22:00N 43°32' E 009°36'612.8
2017-Jun-17 21:30N 43°37' E 009°32'612.9
2017-Jun-17 21:00N 43°43' E 009°28'612.8
2017-Jun-17 20:30N 43°48' E 009°23'612.6
2017-Jun-17 20:00N 43°54' E 009°18'612.6
2017-Jun-17 19:30N 43°59' E 009°14'612.5
2017-Jun-17 19:00N 44°05' E 009°10'612.8
2017-Jun-17 18:30N 44°10' E 009°05'612.8
2017-Jun-17 18:00N 44°16' E 009°00'612.5
2017-Jun-17 17:30N 44°21' E 008°56'4 8.2
2017-Jun-17 17:00N 44°24' E 008°52'0 0.3
2017-Jun-17 16:29N 44°24' E 008°53'0 0.0
2017-Jun-17 15:59N 44°24' E 008°53'0 0.0
2017-Jun-17 15:29N 44°24' E 008°53'0 0.0
2017-Jun-17 14:59N 44°24' E 008°53'  

Dump ship's entire track history